Terminal Aerodrome Forecast
Issued by NWS Charleston, WV

Current Version | Previous Version | Graphics & Text | Print | Product List | Glossary On
Versions: 1 2 3 4 5 6 7 8 9 10 11 12 13 14 15 16 17 18 19 20 21 22 23 24 25 26
979
FTUS41 KRLX 161138
TAFBKW
TAF
KBKW 161138Z 1612/1712 16004KT 2SM BR OVC003
     FM161400 17005KT 4SM BR OVC007
     FM161700 19005KT P6SM OVC025
     FM162300 15004KT P6SM BKN040
     FM171000 18006KT 5SM -SHRA OVC040=

USA.gov is the U.S. government's official web portal to all federal, state and local government web resources and services.